KLAR

Laramie Regional Airport

Laramie, Wyoming, USA
METAR KLAR 220453Z AUTO 16020KT 10SM FEW080 FEW110 16/10 A3015 RMK AO2 PK WND 16034/0411 RAB12E21 SLP096 P0000 T01610100
Observed Flight Rules
Jun-22 @ 04:53 UTC (58 minutes ago) Visual Flight Rules
Wind Visibility Clouds
160° at 20 knots 10 miles
  • Few at 8,000' AGL
  • Few at 11,000' AGL
Temperatures Readings Precipitation
Current 16°C / 61°F
Dewpoint 10°C / 50°F
Humidity 68%
Altimeter 30.15" Hg
Pressure 1009.6 hPa
Elevation 2216
Current Rain 0.005
METAR KLAR 220453Z AUTO 16020KT 10SM FEW080 FEW110 16/10 A3015 RMK AO2 PK WND 16034/0411 RAB12E21 SLP096 P0000 T01610100
Observed Flight Rules
Jun-22 @ 04:53 UTC
(58 minutes ago)
VFR
Wind Visibility
160° at 20 knots 10 miles
Clouds
  • Few at 8,000' AGL
  • Few at 11,000' AGL
Temperature Dewpoint
16°C / 61°F 10°C / 50°F
Humidity Altimeter Pressure
68% 30.15" Hg 1009.6 hPa
Current Rain
0.005